Time;durP1;ratioP1;P1;durP2;ratioP2;P2;SDS_P1;SDS_P2;PMS_P1;PMS_P2;Temp;Humidity;BMP_temperature;BMP_pressure;BME280_temperature;BME280_humidity;BME280_pressure;Samples;Min_cycle;Max_cycle;Signal;HPM_P1;HPM_P2
2023/04/23 00:00:13;;;;;;;21.88;9.38;;;;;;;;;;10527415;28;20028;-80
2023/04/23 00:05:15;;;;;;;21.77;9.90;;;;;;;;;;10527306;28;20101;-79
2023/04/23 00:10:18;;;;;;;19.40;8.83;;;;;;;;;;10496074;28;20097;-80
2023/04/23 00:15:21;;;;;;;22.13;9.27;;;;;;;;;;10526658;28;20039;-80
2023/04/23 00:20:22;;;;;;;25.57;12.03;;;;;;;;;;10525295;28;20035;-80
2023/04/23 00:25:26;;;;;;;35.87;18.00;;;;;;;;;;10521544;28;20048;-82
2023/04/23 00:30:29;;;;;;;23.83;11.57;;;;;;;;;;10509796;28;20059;-80
2023/04/23 00:35:30;;;;;;;30.50;12.53;;;;;;;;;;10527188;28;20364;-80
2023/04/23 00:40:31;;;;;;;25.53;13.47;;;;;;;;;;10525859;28;20047;-79
2023/04/23 00:45:32;;;;;;;27.37;14.93;;;;;;;;;;10515075;28;20115;-80
2023/04/23 00:50:33;;;;;;;27.10;13.60;;;;;;;;;;10528536;28;20036;-79
2023/04/23 00:55:35;;;;;;;23.07;12.03;;;;;;;;;;10519458;28;20027;-80
2023/04/23 01:00:40;;;;;;;22.70;10.90;;;;;;;;;;10534696;28;20191;-81
2023/04/23 01:05:41;;;;;;;23.77;11.93;;;;;;;;;;10534495;28;20041;-80
2023/04/23 01:10:45;;;;;;;28.30;12.53;;;;;;;;;;10535580;28;20777;-81
2023/04/23 01:15:48;;;;;;;20.50;10.60;;;;;;;;;;10534871;28;20883;-80
2023/04/23 01:20:49;;;;;;;22.53;9.80;;;;;;;;;;10515816;28;20036;-81
2023/04/23 01:25:51;;;;;;;19.03;10.07;;;;;;;;;;10547818;28;20028;-81
2023/04/23 01:30:52;;;;;;;20.00;9.90;;;;;;;;;;10534086;28;20020;-81
2023/04/23 01:35:55;;;;;;;24.57;10.97;;;;;;;;;;10533533;28;20451;-82
2023/04/23 01:40:56;;;;;;;25.13;11.50;;;;;;;;;;10534148;28;20051;-80
2023/04/23 01:45:58;;;;;;;25.90;11.10;;;;;;;;;;10533740;28;20036;-80
2023/04/23 01:51:02;;;;;;;19.43;10.80;;;;;;;;;;10533210;28;20510;-80
2023/04/23 01:56:05;;;;;;;27.40;12.07;;;;;;;;;;10532645;28;20044;-80
2023/04/23 02:01:06;;;;;;;23.67;11.87;;;;;;;;;;10531658;28;20650;-79
2023/04/23 02:06:07;;;;;;;22.17;11.33;;;;;;;;;;10488329;28;20060;-80
2023/04/23 02:11:08;;;;;;;20.93;10.33;;;;;;;;;;10489944;28;20039;-79
2023/04/23 02:16:09;;;;;;;21.97;11.20;;;;;;;;;;10489972;28;20039;-79
2023/04/23 02:21:11;;;;;;;19.83;10.87;;;;;;;;;;10489576;28;20140;-80
2023/04/23 02:26:12;;;;;;;22.63;10.20;;;;;;;;;;10488630;28;20036;-80
2023/04/23 02:31:14;;;;;;;23.33;11.40;;;;;;;;;;10488552;28;20047;-79
2023/04/23 02:36:15;;;;;;;20.87;10.87;;;;;;;;;;10490344;28;20129;-79
2023/04/23 02:41:16;;;;;;;23.80;10.70;;;;;;;;;;10489589;28;20585;-80
2023/04/23 02:46:17;;;;;;;24.13;12.07;;;;;;;;;;10488828;28;20072;-80
2023/04/23 02:51:18;;;;;;;24.07;12.63;;;;;;;;;;10489658;28;20162;-79
2023/04/23 02:56:19;;;;;;;34.90;12.33;;;;;;;;;;10488042;28;20047;-80
2023/04/23 03:01:20;;;;;;;29.60;13.47;;;;;;;;;;10488800;28;20039;-80
2023/04/23 03:06:21;;;;;;;25.87;13.10;;;;;;;;;;10525973;28;20082;-80
2023/04/23 03:11:23;;;;;;;27.90;14.60;;;;;;;;;;10528848;28;20463;-80
2023/04/23 03:16:24;;;;;;;24.90;13.17;;;;;;;;;;10529350;28;20035;-80
2023/04/23 03:21:26;;;;;;;25.30;12.23;;;;;;;;;;10528121;28;20047;-80
2023/04/23 03:26:27;;;;;;;28.67;13.30;;;;;;;;;;10528961;28;20031;-80
2023/04/23 03:31:28;;;;;;;23.60;12.40;;;;;;;;;;10528552;28;20036;-80
2023/04/23 03:36:29;;;;;;;25.00;13.00;;;;;;;;;;10529258;28;20041;-81
2023/04/23 03:41:30;;;;;;;27.17;14.10;;;;;;;;;;10509553;28;20136;-80
2023/04/23 03:46:31;;;;;;;25.27;13.10;;;;;;;;;;10528238;28;20169;-80
2023/04/23 03:51:32;;;;;;;32.50;14.47;;;;;;;;;;10528006;28;20040;-80
2023/04/23 03:56:33;;;;;;;29.13;14.47;;;;;;;;;;10527074;28;20177;-80
2023/04/23 04:01:36;;;;;;;25.47;12.33;;;;;;;;;;10526637;28;20036;-79
2023/04/23 04:06:37;;;;;;;25.93;12.83;;;;;;;;;;10497805;28;20072;-81
2023/04/23 04:11:38;;;;;;;24.17;12.30;;;;;;;;;;10488503;28;20111;-81
2023/04/23 04:16:39;;;;;;;23.13;11.63;;;;;;;;;;10500438;28;20035;-81
2023/04/23 04:21:40;;;;;;;23.30;11.67;;;;;;;;;;10491270;28;20036;-80
2023/04/23 04:26:44;;;;;;;29.10;12.27;;;;;;;;;;10473692;28;20629;-80
2023/04/23 04:31:45;;;;;;;23.37;11.17;;;;;;;;;;10489353;28;20032;-80
2023/04/23 04:36:46;;;;;;;27.73;12.33;;;;;;;;;;10490174;28;20040;-81
2023/04/23 04:41:49;;;;;;;22.70;12.00;;;;;;;;;;10486513;28;20029;-81
2023/04/23 04:46:53;;;;;;;26.53;12.73;;;;;;;;;;10484544;28;20468;-80
2023/04/23 04:51:58;;;;;;;24.77;13.13;;;;;;;;;;10485081;28;20040;-81
2023/04/23 04:57:05;;;;;;;23.20;12.70;;;;;;;;;;10484359;28;20024;-79
2023/04/23 05:02:10;;;;;;;29.63;14.03;;;;;;;;;;10488811;28;20048;-79
2023/04/23 05:07:11;;;;;;;26.87;14.07;;;;;;;;;;10525718;28;20028;-80
2023/04/23 05:12:12;;;;;;;27.23;13.70;;;;;;;;;;10526511;28;20040;-80
2023/04/23 05:17:13;;;;;;;31.13;16.30;;;;;;;;;;10525775;28;20040;-80
2023/04/23 05:22:16;;;;;;;30.37;16.07;;;;;;;;;;10524185;28;20054;-79
2023/04/23 05:27:17;;;;;;;37.00;19.83;;;;;;;;;;10525517;28;20043;-80
2023/04/23 05:32:18;;;;;;;31.97;15.83;;;;;;;;;;10526138;28;20102;-80
2023/04/23 05:37:19;;;;;;;28.37;15.27;;;;;;;;;;10531164;28;20115;-80
2023/04/23 05:42:20;;;;;;;46.87;21.07;;;;;;;;;;10533482;28;20046;-81
2023/04/23 05:47:21;;;;;;;36.93;19.37;;;;;;;;;;10533469;28;20513;-81
2023/04/23 05:52:24;;;;;;;30.47;16.40;;;;;;;;;;10532829;28;20036;-80
2023/04/23 05:57:29;;;;;;;25.63;13.90;;;;;;;;;;10532842;28;20104;-81
2023/04/23 06:02:32;;;;;;;28.63;15.32;;;;;;;;;;10532177;28;20487;-81
2023/04/23 06:07:35;;;;;;;33.50;17.23;;;;;;;;;;10493739;28;20401;-80
2023/04/23 06:12:39;;;;;;;58.65;30.35;;;;;;;;;;10490715;28;20060;-80
2023/04/23 06:17:40;;;;;;;31.48;16.15;;;;;;;;;;10491180;28;20041;-81
2023/04/23 06:22:42;;;;;;;27.98;16.48;;;;;;;;;;10489645;28;20052;-80
2023/04/23 06:27:43;;;;;;;28.23;14.15;;;;;;;;;;10490420;28;20041;-80
2023/04/23 06:32:44;;;;;;;29.77;15.95;;;;;;;;;;10491153;28;20078;-81
2023/04/23 06:37:45;;;;;;;25.98;15.20;;;;;;;;;;10489317;28;20025;-80
2023/04/23 06:42:46;;;;;;;26.50;13.73;;;;;;;;;;10495994;28;20133;-80
2023/04/23 06:47:48;;;;;;;21.20;12.93;;;;;;;;;;10489067;28;20032;-80
2023/04/23 06:52:49;;;;;;;24.35;12.65;;;;;;;;;;10488332;28;20052;-80
2023/04/23 06:57:50;;;;;;;21.83;12.20;;;;;;;;;;10488520;28;20618;-81
2023/04/23 07:02:51;;;;;;;19.38;11.02;;;;;;;;;;10511053;28;20082;-81
2023/04/23 07:07:52;;;;;;;14.52;9.60;;;;;;;;;;10528650;28;20743;-79
2023/04/23 07:12:53;;;;;;;14.73;9.65;;;;;;;;;;10525817;28;20567;-80
2023/04/23 07:17:54;;;;;;;21.88;10.65;;;;;;;;;;10529000;28;20119;-80
2023/04/23 07:22:55;;;;;;;11.93;8.88;;;;;;;;;;10528393;28;20040;-81
2023/04/23 07:27:56;;;;;;;17.02;9.27;;;;;;;;;;10530089;28;20414;-79
2023/04/23 07:32:57;;;;;;;15.07;9.35;;;;;;;;;;10529216;28;20031;-82
2023/04/23 07:37:58;;;;;;;14.05;8.88;;;;;;;;;;10528427;28;20570;-80
2023/04/23 07:42:59;;;;;;;16.35;11.65;;;;;;;;;;10528877;28;20048;-82
2023/04/23 07:48:01;;;;;;;18.70;11.93;;;;;;;;;;10527704;28;20040;-80
2023/04/23 07:53:02;;;;;;;14.20;8.80;;;;;;;;;;10527591;28;20036;-81
2023/04/23 07:58:03;;;;;;;13.80;7.90;;;;;;;;;;10526959;28;20728;-80
2023/04/23 08:03:04;;;;;;;10.85;6.93;;;;;;;;;;10509576;28;20063;-82
2023/04/23 08:08:06;;;;;;;9.52;6.18;;;;;;;;;;10527334;28;20031;-81
2023/04/23 08:13:07;;;;;;;8.65;5.88;;;;;;;;;;10526702;28;20036;-80
2023/04/23 08:18:08;;;;;;;9.23;5.53;;;;;;;;;;10527004;28;20036;-81
2023/04/23 08:23:09;;;;;;;8.35;5.45;;;;;;;;;;10506351;28;20040;-80
2023/04/23 08:28:10;;;;;;;10.82;6.00;;;;;;;;;;10492708;28;20031;-81
2023/04/23 08:33:11;;;;;;;8.38;5.20;;;;;;;;;;10522818;28;20028;-80
2023/04/23 08:38:12;;;;;;;8.05;4.80;;;;;;;;;;10526717;28;20035;-80
2023/04/23 08:43:16;;;;;;;8.40;5.00;;;;;;;;;;10527213;28;20072;-80
2023/04/23 08:48:17;;;;;;;12.57;5.30;;;;;;;;;;10518542;28;20028;-81
2023/04/23 08:53:19;;;;;;;13.13;5.28;;;;;;;;;;10526465;28;20040;-80
2023/04/23 08:58:20;;;;;;;9.13;4.78;;;;;;;;;;10524592;28;20074;-80
2023/04/23 09:03:23;;;;;;;7.40;4.38;;;;;;;;;;10525100;28;20067;-83
2023/04/23 09:08:24;;;;;;;5.75;3.92;;;;;;;;;;10527082;28;20016;-81
2023/04/23 09:13:25;;;;;;;5.63;3.40;;;;;;;;;;10534133;28;20031;-82
2023/04/23 09:18:26;;;;;;;6.03;4.28;;;;;;;;;;10533901;28;20024;-82
2023/04/23 09:23:27;;;;;;;6.18;4.28;;;;;;;;;;10533208;28;20044;-80
2023/04/23 09:28:35;;;;;;;4.38;3.65;;;;;;;;;;10533893;28;20134;-79
2023/04/23 09:33:36;;;;;;;7.15;3.88;;;;;;;;;;10532738;28;20126;-82
2023/04/23 09:38:39;;;;;;;5.63;3.50;;;;;;;;;;10532997;28;20107;-79
2023/04/23 09:43:41;;;;;;;4.20;2.88;;;;;;;;;;10532071;28;20040;-79
2023/04/23 09:48:42;;;;;;;4.55;3.00;;;;;;;;;;10527649;28;20589;-79
2023/04/23 09:53:44;;;;;;;4.65;3.00;;;;;;;;;;10532851;28;20035;-81
2023/04/23 09:58:45;;;;;;;7.03;3.60;;;;;;;;;;10531997;28;20028;-80
2023/04/23 10:03:52;;;;;;;4.30;3.17;;;;;;;;;;10532455;28;20052;-80
2023/04/23 10:08:53;;;;;;;5.95;3.10;;;;;;;;;;10529066;28;20032;-80
2023/04/23 10:13:54;;;;;;;8.32;2.90;;;;;;;;;;10530681;28;20020;-78
2023/04/23 10:18:58;;;;;;;5.15;2.90;;;;;;;;;;10530872;28;20107;-78
2023/04/23 10:24:00;;;;;;;4.85;3.13;;;;;;;;;;10529443;28;20070;-79
2023/04/23 10:29:02;;;;;;;3.88;2.80;;;;;;;;;;10513838;28;20032;-78
2023/04/23 10:34:05;;;;;;;3.72;2.50;;;;;;;;;;10531183;28;20031;-80
2023/04/23 10:39:07;;;;;;;3.25;2.95;;;;;;;;;;10530731;28;20062;-79
2023/04/23 10:44:12;;;;;;;4.10;2.80;;;;;;;;;;10531158;28;20057;-81
2023/04/23 10:49:15;;;;;;;3.85;2.35;;;;;;;;;;10529843;28;20534;-83
2023/04/23 10:54:16;;;;;;;3.35;2.65;;;;;;;;;;10530186;28;20024;-80
2023/04/23 10:59:21;;;;;;;2.92;2.70;;;;;;;;;;10530047;28;20105;-81
2023/04/23 11:04:27;;;;;;;3.13;2.35;;;;;;;;;;10530505;28;20105;-79
2023/04/23 11:09:29;;;;;;;6.22;2.95;;;;;;;;;;10530383;28;20020;-79
2023/04/23 11:14:49;;;;;;;3.38;2.40;;;;;;;;;;10529925;28;20088;-81
2023/04/23 11:20:12;;;;;;;5.45;2.67;;;;;;;;;;10529954;28;20038;-79
2023/04/23 11:25:15;;;;;;;3.75;2.20;;;;;;;;;;10530350;28;20036;-80
2023/04/23 11:30:23;;;;;;;5.90;2.75;;;;;;;;;;10516095;28;20033;-80
2023/04/23 11:35:27;;;;;;;4.40;2.95;;;;;;;;;;10514664;28;20095;-79
2023/04/23 11:40:29;;;;;;;4.70;2.60;;;;;;;;;;10518274;28;20106;-79
2023/04/23 11:45:30;;;;;;;5.63;2.70;;;;;;;;;;10529261;28;20505;-79
2023/04/23 11:50:34;;;;;;;3.13;2.65;;;;;;;;;;10528256;28;20024;-79
2023/04/23 11:55:35;;;;;;;3.50;2.42;;;;;;;;;;10527940;28;20056;-79
2023/04/23 12:00:36;;;;;;;5.82;3.17;;;;;;;;;;10528591;28;20032;-79
2023/04/23 12:05:42;;;;;;;3.67;3.10;;;;;;;;;;10528130;28;20052;-79
2023/04/23 12:10:46;;;;;;;6.68;3.10;;;;;;;;;;10527403;28;20089;-79
2023/04/23 12:15:48;;;;;;;5.43;2.95;;;;;;;;;;10527906;28;20043;-79
2023/04/23 12:20:50;;;;;;;4.90;3.28;;;;;;;;;;10527386;28;20028;-81
2023/04/23 12:25:53;;;;;;;6.97;3.78;;;;;;;;;;10527306;28;20036;-79
2023/04/23 12:30:59;;;;;;;4.95;2.95;;;;;;;;;;10526876;28;20074;-79
2023/04/23 12:36:00;;;;;;;3.75;3.25;;;;;;;;;;10509279;28;20024;-79
2023/04/23 12:41:01;;;;;;;3.65;3.08;;;;;;;;;;10527969;28;20027;-78
2023/04/23 12:46:02;;;;;;;5.13;3.13;;;;;;;;;;10533928;28;20142;-79
2023/04/23 12:51:05;;;;;;;4.30;3.17;;;;;;;;;;10540979;28;20032;-79
2023/04/23 12:56:06;;;;;;;5.60;3.45;;;;;;;;;;10540889;28;20016;-81
2023/04/23 13:01:10;;;;;;;6.07;3.42;;;;;;;;;;10540464;28;20032;-79
2023/04/23 13:06:11;;;;;;;5.20;3.28;;;;;;;;;;10540654;28;20040;-80
2023/04/23 13:11:12;;;;;;;3.97;3.15;;;;;;;;;;10540455;28;20538;-80
2023/04/23 13:16:14;;;;;;;4.03;3.17;;;;;;;;;;10540484;28;20104;-79
2023/04/23 13:21:15;;;;;;;9.70;3.35;;;;;;;;;;10541232;28;20059;-79
2023/04/23 13:26:16;;;;;;;4.60;3.17;;;;;;;;;;10540381;28;20024;-79
2023/04/23 13:31:17;;;;;;;5.30;3.42;;;;;;;;;;10540659;28;20082;-80
2023/04/23 13:36:18;;;;;;;5.88;3.22;;;;;;;;;;10540131;28;20074;-80
2023/04/23 13:41:19;;;;;;;4.50;3.58;;;;;;;;;;10540238;28;20035;-80
2023/04/23 13:46:20;;;;;;;5.00;3.15;;;;;;;;;;10539839;28;20063;-81
2023/04/23 13:51:21;;;;;;;4.97;3.58;;;;;;;;;;10540027;28;20024;-79
2023/04/23 13:56:22;;;;;;;6.72;3.47;;;;;;;;;;10537713;28;20050;-80
2023/04/23 14:01:23;;;;;;;5.10;3.42;;;;;;;;;;10534116;28;20024;-80
2023/04/23 14:06:25;;;;;;;4.72;3.40;;;;;;;;;;10532688;28;20552;-80
2023/04/23 14:11:26;;;;;;;3.25;2.50;;;;;;;;;;10532918;28;20020;-80
2023/04/23 14:16:27;;;;;;;6.20;3.85;;;;;;;;;;10532837;28;20028;-79
2023/04/23 14:21:28;;;;;;;4.93;3.28;;;;;;;;;;10531735;28;20040;-80
2023/04/23 14:26:36;;;;;;;5.10;3.50;;;;;;;;;;10532353;28;20395;-79
2023/04/23 14:31:38;;;;;;;5.72;3.45;;;;;;;;;;10532716;28;20051;-80
2023/04/23 14:36:39;;;;;;;5.13;3.30;;;;;;;;;;10531438;28;20043;-79
2023/04/23 14:41:40;;;;;;;5.60;3.30;;;;;;;;;;10532729;28;20039;-79
2023/04/23 14:46:41;;;;;;;4.10;3.15;;;;;;;;;;10531186;28;20032;-80
2023/04/23 14:51:43;;;;;;;4.38;3.25;;;;;;;;;;10531237;28;20024;-81
2023/04/23 14:56:44;;;;;;;3.60;3.05;;;;;;;;;;10531305;28;20084;-81
2023/04/23 15:01:45;;;;;;;5.38;3.92;;;;;;;;;;10530614;28;20031;-80
2023/04/23 15:06:46;;;;;;;5.10;3.65;;;;;;;;;;10530420;28;20051;-79
2023/04/23 15:11:48;;;;;;;7.05;3.72;;;;;;;;;;10530815;28;20103;-79
2023/04/23 15:16:49;;;;;;;5.00;3.20;;;;;;;;;;10531054;28;20036;-79
2023/04/23 15:21:50;;;;;;;6.65;3.92;;;;;;;;;;10530186;28;20031;-79
2023/04/23 15:26:53;;;;;;;5.05;3.55;;;;;;;;;;10530180;28;20024;-79
2023/04/23 15:31:56;;;;;;;5.18;4.25;;;;;;;;;;10529443;28;20092;-81
2023/04/23 15:36:57;;;;;;;7.68;4.78;;;;;;;;;;10529563;28;20028;-79
2023/04/23 15:41:58;;;;;;;6.25;3.97;;;;;;;;;;10529303;28;20055;-80
2023/04/23 15:47:02;;;;;;;18.10;11.18;;;;;;;;;;10528836;28;20040;-79
2023/04/23 15:52:03;;;;;;;7.55;4.47;;;;;;;;;;10528995;28;20016;-80
2023/04/23 15:57:04;;;;;;;8.38;3.75;;;;;;;;;;10528310;28;20031;-79
2023/04/23 16:02:05;;;;;;;6.80;3.70;;;;;;;;;;10528100;28;20101;-79
2023/04/23 16:07:06;;;;;;;7.47;4.68;;;;;;;;;;10527762;28;20092;-81
2023/04/23 16:12:07;;;;;;;7.03;4.40;;;;;;;;;;10527450;28;20537;-80
2023/04/23 16:17:08;;;;;;;6.53;4.55;;;;;;;;;;10527748;28;20708;-81
2023/04/23 16:22:09;;;;;;;4.72;3.20;;;;;;;;;;10526618;28;20032;-79
2023/04/23 16:27:10;;;;;;;6.88;3.88;;;;;;;;;;10526751;28;20024;-80
2023/04/23 16:32:11;;;;;;;14.82;8.10;;;;;;;;;;10527199;28;20505;-79
2023/04/23 16:37:14;;;;;;;26.67;10.35;;;;;;;;;;10527693;28;20058;-80
2023/04/23 16:42:15;;;;;;;22.67;9.45;;;;;;;;;;10526841;28;20463;-80
2023/04/23 16:47:16;;;;;;;25.77;11.48;;;;;;;;;;10526515;28;20039;-79
2023/04/23 16:52:17;;;;;;;19.45;8.25;;;;;;;;;;10526808;28;20020;-79
2023/04/23 16:57:18;;;;;;;16.63;8.48;;;;;;;;;;10526666;28;20032;-79
2023/04/23 17:02:19;;;;;;;14.23;7.88;;;;;;;;;;10508269;28;20052;-81
2023/04/23 17:07:20;;;;;;;8.10;4.88;;;;;;;;;;10526692;28;20043;-80
2023/04/23 17:12:21;;;;;;;10.25;5.25;;;;;;;;;;10526632;28;20031;-79
2023/04/23 17:17:23;;;;;;;14.45;6.82;;;;;;;;;;10514929;28;20166;-79
2023/04/23 17:22:24;;;;;;;10.80;6.05;;;;;;;;;;10499988;28;20089;-80
2023/04/23 17:27:25;;;;;;;8.73;4.60;;;;;;;;;;10525944;28;20479;-80
2023/04/23 17:32:26;;;;;;;11.73;6.28;;;;;;;;;;10529962;28;20077;-80
2023/04/23 17:37:27;;;;;;;10.88;6.75;;;;;;;;;;10529581;28;20059;-80
2023/04/23 17:42:28;;;;;;;10.50;6.32;;;;;;;;;;10532671;28;20032;-78
2023/04/23 17:47:29;;;;;;;10.18;5.68;;;;;;;;;;10524920;28;20555;-79
2023/04/23 17:52:30;;;;;;;9.38;5.88;;;;;;;;;;10527223;28;20032;-78
2023/04/23 17:57:32;;;;;;;13.18;8.32;;;;;;;;;;10529729;28;20454;-78
2023/04/23 18:02:38;;;;;;;13.85;8.00;;;;;;;;;;10531691;28;20044;-78
2023/04/23 18:07:40;;;;;;;7.28;5.07;;;;;;;;;;10530483;28;21001;-79
2023/04/23 18:12:41;;;;;;;11.82;5.40;;;;;;;;;;10525256;28;20034;-78
2023/04/23 18:17:43;;;;;;;11.70;6.80;;;;;;;;;;10530911;28;20028;-78
2023/04/23 18:22:44;;;;;;;17.17;9.50;;;;;;;;;;10530820;28;20036;-79
2023/04/23 18:27:45;;;;;;;9.27;6.13;;;;;;;;;;10531799;28;20420;-79
2023/04/23 18:32:48;;;;;;;14.07;8.38;;;;;;;;;;10529421;28;20103;-79
2023/04/23 18:37:53;;;;;;;11.50;6.78;;;;;;;;;;10528623;28;20583;-80
2023/04/23 18:42:54;;;;;;;8.00;5.63;;;;;;;;;;10529331;28;20636;-79
2023/04/23 18:47:59;;;;;;;9.18;4.72;;;;;;;;;;10530596;28;20115;-80
2023/04/23 18:53:00;;;;;;;6.33;4.10;;;;;;;;;;10529933;28;20457;-79
2023/04/23 18:58:01;;;;;;;5.20;4.18;;;;;;;;;;10527834;28;20077;-80
2023/04/23 19:03:02;;;;;;;7.88;5.13;;;;;;;;;;10507853;28;20075;-79
2023/04/23 19:08:03;;;;;;;5.75;4.13;;;;;;;;;;10529164;28;20020;-78
2023/04/23 19:13:04;;;;;;;5.07;3.90;;;;;;;;;;10528403;28;20024;-80
2023/04/23 19:18:05;;;;;;;5.88;3.67;;;;;;;;;;10529162;28;20379;-80
2023/04/23 19:23:07;;;;;;;7.25;3.70;;;;;;;;;;10529866;28;20024;-80
2023/04/23 19:28:09;;;;;;;9.13;4.93;;;;;;;;;;10510061;28;20403;-80
2023/04/23 19:33:11;;;;;;;8.60;4.80;;;;;;;;;;10528802;28;20044;-80
2023/04/23 19:38:12;;;;;;;18.05;8.45;;;;;;;;;;10526431;28;20035;-81
2023/04/23 19:43:14;;;;;;;10.02;5.22;;;;;;;;;;10526018;28;20434;-80
2023/04/23 19:48:15;;;;;;;22.08;10.73;;;;;;;;;;10527218;28;20066;-80
2023/04/23 19:53:16;;;;;;;9.75;6.57;;;;;;;;;;10527622;28;20032;-81
2023/04/23 19:58:17;;;;;;;7.35;5.00;;;;;;;;;;10527638;28;20024;-79
2023/04/23 20:03:19;;;;;;;6.80;5.10;;;;;;;;;;10498755;28;20156;-80
2023/04/23 20:08:28;;;;;;;6.35;4.90;;;;;;;;;;10492368;28;20112;-80
2023/04/23 20:13:29;;;;;;;5.38;4.22;;;;;;;;;;10491042;28;20453;-80
2023/04/23 20:18:33;;;;;;;5.95;4.75;;;;;;;;;;10493774;28;20043;-80
2023/04/23 20:23:34;;;;;;;7.43;5.47;;;;;;;;;;10493368;28;20060;-79
2023/04/23 20:28:36;;;;;;;7.78;5.15;;;;;;;;;;10485282;28;20155;-80
2023/04/23 20:33:36;;;;;;;8.90;6.03;;;;;;;;;;10505216;28;20032;-79
2023/04/23 20:38:38;;;;;;;15.48;8.13;;;;;;;;;;10495896;28;20779;-80
2023/04/23 20:43:38;;;;;;;10.63;5.78;;;;;;;;;;10497301;28;20380;-80
2023/04/23 20:48:42;;;;;;;11.45;6.78;;;;;;;;;;10494435;28;20025;-80
2023/04/23 20:53:43;;;;;;;19.15;10.63;;;;;;;;;;10492177;28;20941;-80
2023/04/23 20:58:44;;;;;;;24.35;11.55;;;;;;;;;;10486103;28;20040;-79
2023/04/23 21:03:45;;;;;;;28.77;12.25;;;;;;;;;;10506393;28;20055;-79
2023/04/23 21:08:46;;;;;;;33.55;15.43;;;;;;;;;;10532034;28;20032;-80
2023/04/23 21:13:47;;;;;;;36.97;17.40;;;;;;;;;;10534758;28;20035;-80
2023/04/23 21:18:48;;;;;;;45.22;20.60;;;;;;;;;;10534149;28;20032;-79
2023/04/23 21:23:49;;;;;;;32.85;15.38;;;;;;;;;;10533934;28;20046;-80
2023/04/23 21:28:50;;;;;;;23.60;13.20;;;;;;;;;;10533409;28;20111;-79
2023/04/23 21:33:51;;;;;;;23.35;11.98;;;;;;;;;;10532766;28;20032;-79
2023/04/23 21:38:52;;;;;;;17.38;10.32;;;;;;;;;;10533600;28;20042;-80
2023/04/23 21:43:53;;;;;;;19.60;11.88;;;;;;;;;;10533140;28;20063;-80
2023/04/23 21:48:55;;;;;;;23.17;14.07;;;;;;;;;;10531931;28;20030;-79
2023/04/23 21:53:56;;;;;;;16.20;9.20;;;;;;;;;;10532777;28;20020;-81
2023/04/23 21:58:57;;;;;;;15.55;9.48;;;;;;;;;;10533115;28;20391;-80
2023/04/23 22:03:58;;;;;;;20.15;11.90;;;;;;;;;;10531550;28;20048;-79
2023/04/23 22:09:00;;;;;;;15.45;10.50;;;;;;;;;;10546320;28;20013;-80
2023/04/23 22:14:01;;;;;;;19.63;9.60;;;;;;;;;;10532139;28;20475;-79
2023/04/23 22:19:03;;;;;;;15.18;9.07;;;;;;;;;;10541996;28;20024;-79
2023/04/23 22:24:06;;;;;;;20.08;11.48;;;;;;;;;;10528617;28;20498;-79
2023/04/23 22:29:07;;;;;;;19.13;12.63;;;;;;;;;;10531998;28;20478;-80
2023/04/23 22:34:08;;;;;;;14.57;10.35;;;;;;;;;;10531221;28;20027;-80
2023/04/23 22:39:09;;;;;;;59.35;32.45;;;;;;;;;;10524278;28;20040;-79
2023/04/23 22:44:10;;;;;;;21.88;12.50;;;;;;;;;;10531085;28;20434;-80
2023/04/23 22:49:13;;;;;;;18.02;11.00;;;;;;;;;;10532070;28;20036;-79
2023/04/23 22:54:14;;;;;;;18.30;12.35;;;;;;;;;;10530916;28;20114;-79
2023/04/23 22:59:15;;;;;;;22.70;13.23;;;;;;;;;;10530848;28;20028;-79
2023/04/23 23:04:16;;;;;;;23.35;13.82;;;;;;;;;;10530986;28;20443;-80
2023/04/23 23:09:17;;;;;;;23.77;14.43;;;;;;;;;;10531302;28;20020;-80
2023/04/23 23:14:18;;;;;;;23.38;13.27;;;;;;;;;;10529957;28;20122;-80
2023/04/23 23:19:19;;;;;;;22.23;12.60;;;;;;;;;;10529824;28;20030;-80
2023/04/23 23:24:21;;;;;;;20.63;12.63;;;;;;;;;;10528545;28;20048;-80
2023/04/23 23:29:22;;;;;;;21.33;13.55;;;;;;;;;;10528791;28;20036;-79
2023/04/23 23:34:23;;;;;;;21.13;12.90;;;;;;;;;;10528853;28;20032;-79
2023/04/23 23:39:26;;;;;;;24.27;13.63;;;;;;;;;;10528199;28;20043;-79
2023/04/23 23:44:27;;;;;;;18.15;12.13;;;;;;;;;;10527441;28;20040;-81
2023/04/23 23:49:28;;;;;;;21.50;13.88;;;;;;;;;;10528429;28;20020;-80
2023/04/23 23:54:29;;;;;;;25.65;15.57;;;;;;;;;;10526752;28;20474;-80
2023/04/23 23:59:30;;;;;;;24.02;15.15;;;;;;;;;;10527951;28;20059;-79
